createdAt,value
2018-12-04T00:00:02.055Z,25.60
2018-12-04T00:01:02.068Z,22.90
2018-12-04T00:02:02.072Z,22.00
2018-12-04T00:03:02.129Z,22.80
2018-12-04T00:04:02.202Z,21.60
2018-12-04T00:05:02.123Z,21.30
2018-12-04T00:06:02.170Z,20.50
2018-12-04T00:07:02.188Z,18.30
2018-12-04T00:08:02.289Z,19.70
2018-12-04T00:09:02.396Z,19.10
2018-12-04T00:10:02.316Z,18.20
2018-12-04T00:11:02.210Z,18.50
2018-12-04T00:12:02.338Z,17.60
2018-12-04T00:13:02.224Z,17.40
2018-12-04T00:14:02.395Z,17.40
2018-12-04T00:15:02.257Z,17.50
2018-12-04T00:16:02.275Z,16.90
2018-12-04T00:17:02.290Z,16.80
2018-12-04T00:18:02.292Z,16.90
2018-12-04T00:19:02.416Z,16.50
2018-12-04T00:20:02.348Z,16.80
2018-12-04T00:21:02.383Z,17.00
2018-12-04T00:22:02.403Z,18.70
2018-12-04T00:23:02.373Z,20.10
2018-12-04T00:24:02.485Z,19.50
2018-12-04T00:25:02.517Z,20.20
2018-12-04T00:26:02.413Z,20.00
2018-12-04T00:27:02.426Z,20.60
2018-12-04T00:28:02.452Z,21.70
2018-12-04T00:29:02.540Z,21.30
2018-12-04T00:30:02.471Z,22.30
2018-12-04T00:31:02.518Z,22.60
2018-12-04T00:32:02.499Z,20.20
2018-12-04T00:33:02.631Z,20.30
2018-12-04T00:34:02.745Z,20.50
2018-12-04T00:35:02.542Z,21.00
2018-12-04T00:36:02.542Z,20.60
2018-12-04T00:37:02.689Z,21.10
2018-12-04T00:38:02.573Z,20.50
2018-12-04T00:39:02.860Z,20.50
2018-12-04T00:40:02.727Z,20.40
2018-12-04T00:41:02.619Z,20.40
2018-12-04T00:42:02.677Z,20.90
2018-12-04T00:43:02.789Z,20.10
2018-12-04T00:44:02.932Z,22.60
2018-12-04T00:45:02.790Z,22.60
2018-12-04T00:46:02.694Z,21.60
2018-12-04T00:47:02.710Z,22.60
2018-12-04T00:48:02.834Z,23.10
2018-12-04T00:49:02.835Z,22.10
2018-12-04T00:50:02.749Z,22.20
2018-12-04T00:51:02.756Z,21.50
2018-12-04T00:52:02.766Z,22.20
2018-12-04T00:53:02.777Z,20.90
2018-12-04T00:54:02.951Z,21.50
2018-12-04T00:55:02.930Z,21.30
2018-12-04T00:56:02.846Z,19.30
2018-12-04T00:57:02.962Z,19.20
2018-12-04T00:58:02.842Z,18.90
2018-12-04T00:59:02.980Z,18.50
2018-12-04T01:00:02.879Z,17.90
2018-12-04T01:01:02.904Z,17.30
2018-12-04T01:02:02.912Z,18.20
2018-12-04T01:03:02.911Z,17.20
2018-12-04T01:04:03.204Z,17.70
2018-12-04T01:05:02.942Z,16.70
2018-12-04T01:06:03.077Z,16.30
2018-12-04T01:07:03.095Z,16.80
2018-12-04T01:08:02.988Z,16.70
2018-12-04T01:09:03.099Z,15.70
2018-12-04T01:10:03.133Z,16.40
2018-12-04T01:11:03.023Z,16.60
2018-12-04T01:12:03.164Z,16.40
2018-12-04T01:13:03.062Z,16.10
2018-12-04T01:14:03.165Z,15.70
2018-12-04T01:15:03.200Z,15.60
2018-12-04T01:16:03.216Z,15.00
2018-12-04T01:17:03.227Z,13.90
2018-12-04T01:18:03.109Z,14.00
2018-12-04T01:19:03.224Z,14.00
2018-12-04T01:20:03.176Z,15.10
2018-12-04T01:21:03.179Z,14.30
2018-12-04T01:22:03.178Z,15.20
2018-12-04T01:23:03.233Z,14.10
2018-12-04T01:24:03.284Z,13.80
2018-12-04T01:25:03.239Z,14.70
2018-12-04T01:26:03.223Z,14.00
2018-12-04T01:27:03.238Z,12.60
2018-12-04T01:28:03.245Z,13.50
2018-12-04T01:29:03.488Z,14.20
2018-12-04T01:30:03.268Z,13.40
2018-12-04T01:31:03.413Z,13.30
2018-12-04T01:32:03.300Z,12.60
2018-12-04T01:33:03.324Z,13.20
2018-12-04T01:34:03.413Z,12.40
2018-12-04T01:35:03.346Z,13.90
2018-12-04T01:36:03.352Z,12.70
2018-12-04T01:37:03.484Z,11.50
2018-12-04T01:38:03.425Z,11.70
2018-12-04T01:39:03.490Z,11.80
2018-12-04T01:40:03.408Z,12.40
2018-12-04T01:41:03.439Z,9.80
2018-12-04T01:42:03.470Z,9.00
2018-12-04T01:43:03.475Z,9.00
2018-12-04T01:44:03.552Z,9.20
2018-12-04T01:45:03.484Z,8.60
2018-12-04T01:46:03.489Z,9.30
2018-12-04T01:47:03.493Z,8.20
2018-12-04T01:48:03.512Z,7.40
2018-12-04T01:49:03.566Z,8.10
2018-12-04T01:50:03.662Z,8.80
2018-12-04T01:51:03.540Z,8.70
2018-12-04T01:52:03.603Z,9.10
2018-12-04T01:53:03.570Z,9.50
2018-12-04T01:54:03.586Z,9.50
2018-12-04T01:55:03.632Z,8.30
2018-12-04T01:56:03.714Z,8.50
2018-12-04T01:57:03.746Z,8.00
2018-12-04T01:58:03.760Z,8.70
2018-12-04T01:59:03.653Z,9.40
2018-12-04T02:00:03.657Z,9.30
2018-12-04T02:01:03.878Z,9.30
2018-12-04T02:02:03.817Z,9.80
2018-12-04T02:03:03.828Z,9.90
2018-12-04T02:04:03.704Z,10.00
2018-12-04T02:05:03.741Z,9.70
2018-12-04T02:06:04.018Z,9.90
2018-12-04T02:07:03.769Z,9.70
2018-12-04T02:08:03.769Z,10.00
2018-12-04T02:09:03.789Z,10.60
2018-12-04T02:10:03.793Z,11.20
2018-12-04T02:11:03.898Z,11.80
2018-12-04T02:12:03.941Z,11.60
2018-12-04T02:13:03.831Z,12.00
2018-12-04T02:14:03.841Z,12.20
2018-12-04T02:15:03.862Z,12.80
2018-12-04T02:16:03.979Z,13.70
2018-12-04T02:17:03.886Z,13.20
2018-12-04T02:18:03.892Z,13.00
2018-12-04T02:19:03.911Z,13.30
2018-12-04T02:20:03.933Z,14.20
2018-12-04T02:21:05.285Z,13.60
2018-12-04T02:22:03.952Z,13.80
2018-12-04T02:23:03.981Z,14.10
2018-12-04T02:24:04.097Z,13.80
2018-12-04T02:25:03.990Z,14.00
2018-12-04T02:26:04.042Z,14.80
2018-12-04T02:27:04.017Z,14.30
2018-12-04T02:28:04.042Z,15.40
2018-12-04T02:29:04.087Z,15.10
2018-12-04T02:30:04.178Z,15.50
2018-12-04T02:31:04.062Z,15.00
2018-12-04T02:32:04.204Z,14.30
2018-12-04T02:33:04.163Z,11.70
2018-12-04T02:34:04.222Z,10.70
2018-12-04T02:35:04.116Z,9.60
2018-12-04T02:36:04.127Z,8.50
2018-12-04T02:37:04.158Z,6.70
2018-12-04T02:38:04.172Z,6.60
2018-12-04T02:39:04.333Z,5.20
2018-12-04T02:40:04.315Z,6.00
2018-12-04T02:41:04.221Z,5.40
2018-12-04T02:42:04.215Z,5.00
2018-12-04T02:43:04.237Z,4.60
2018-12-04T02:45:04.274Z,3.60
2018-12-04T02:46:04.271Z,3.50
2018-12-04T02:47:04.302Z,3.10
2018-12-04T02:48:04.337Z,3.40
2018-12-04T02:49:04.409Z,2.80
2018-12-04T02:50:04.323Z,2.70
2018-12-04T02:51:04.349Z,3.00
2018-12-04T02:52:04.351Z,3.00
2018-12-04T02:53:04.372Z,3.30
2018-12-04T02:54:04.652Z,2.40
2018-12-04T02:55:04.398Z,2.90
2018-12-04T02:56:04.394Z,3.00
2018-12-04T02:57:04.432Z,3.20
2018-12-04T02:58:04.437Z,3.20
2018-12-04T02:59:04.602Z,3.10
2018-12-04T03:00:04.468Z,2.90
2018-12-04T03:01:04.481Z,2.80
2018-12-04T03:02:04.506Z,3.30
2018-12-04T03:03:04.542Z,2.90
2018-12-04T03:04:04.616Z,2.90
2018-12-04T03:05:04.538Z,3.50
2018-12-04T03:06:04.542Z,2.90
2018-12-04T03:07:04.571Z,2.80
2018-12-04T03:08:04.562Z,3.10
2018-12-04T03:09:04.720Z,3.10
2018-12-04T03:10:04.588Z,2.50
2018-12-04T03:11:04.613Z,2.60
2018-12-04T03:12:04.617Z,3.10
2018-12-04T03:13:04.620Z,2.80
2018-12-04T03:14:04.803Z,3.00
2018-12-04T03:15:04.655Z,3.60
2018-12-04T03:16:04.790Z,3.20
2018-12-04T03:17:04.691Z,2.90
2018-12-04T03:18:04.691Z,2.80
2018-12-04T03:19:04.799Z,3.00
2018-12-04T03:20:04.730Z,3.10
2018-12-04T03:21:04.732Z,3.30
2018-12-04T03:22:04.758Z,3.10
2018-12-04T03:23:04.757Z,2.90
2018-12-04T03:24:04.916Z,3.90
2018-12-04T03:25:04.776Z,3.80
2018-12-04T03:26:04.803Z,4.10
2018-12-04T03:27:04.807Z,3.50
2018-12-04T03:28:04.817Z,3.90
2018-12-04T03:29:04.949Z,3.60
2018-12-04T03:30:04.969Z,3.80
2018-12-04T03:31:04.868Z,3.50
2018-12-04T03:32:04.871Z,3.50
2018-12-04T03:33:04.928Z,3.60
2018-12-04T03:34:05.046Z,3.60
2018-12-04T03:35:04.927Z,3.70
2018-12-04T03:36:05.110Z,4.30
2018-12-04T03:37:04.943Z,4.20
2018-12-04T03:38:04.950Z,4.20
2018-12-04T03:39:05.187Z,3.80
2018-12-04T03:40:04.982Z,3.70
2018-12-04T03:41:04.999Z,4.50
2018-12-04T03:42:04.994Z,4.80
2018-12-04T03:43:05.026Z,4.60
2018-12-04T03:44:05.137Z,4.50
2018-12-04T03:45:05.163Z,4.30
2018-12-04T03:46:05.053Z,5.40
2018-12-04T03:47:05.077Z,4.70
2018-12-04T03:48:05.075Z,5.30
2018-12-04T03:49:05.242Z,4.80
2018-12-04T03:50:05.109Z,5.10
2018-12-04T03:51:05.242Z,5.90
2018-12-04T03:52:05.146Z,5.50
2018-12-04T03:53:05.145Z,4.90
2018-12-04T03:54:05.246Z,5.00
2018-12-04T03:55:05.228Z,5.30
2018-12-04T03:56:05.195Z,5.80
2018-12-04T03:57:05.182Z,5.60
2018-12-04T03:58:05.253Z,6.20
2018-12-04T03:59:05.424Z,7.30
2018-12-04T04:00:05.252Z,7.90
2018-12-04T04:01:05.242Z,7.70
2018-12-04T04:02:05.266Z,7.90
2018-12-04T04:03:05.271Z,7.50
2018-12-04T04:04:05.555Z,8.40
2018-12-04T04:05:05.419Z,8.10
2018-12-04T04:06:05.302Z,7.90
2018-12-04T04:07:05.327Z,8.60
2018-12-04T04:08:05.396Z,8.20
2018-12-04T04:09:05.446Z,9.00
2018-12-04T04:10:05.356Z,9.50
2018-12-04T04:11:05.362Z,9.80
2018-12-04T04:12:05.387Z,9.80
2018-12-04T04:13:05.397Z,10.00
2018-12-04T04:14:05.561Z,10.30
2018-12-04T04:15:05.421Z,10.90
2018-12-04T04:16:05.428Z,10.80
2018-12-04T04:17:05.457Z,10.80
2018-12-04T04:18:05.472Z,11.00
2018-12-04T04:19:05.635Z,11.60
2018-12-04T04:20:05.530Z,11.10
2018-12-04T04:21:05.498Z,10.70
2018-12-04T04:22:05.537Z,11.20
2018-12-04T04:23:05.564Z,11.20
2018-12-04T04:24:05.691Z,11.20
2018-12-04T04:25:05.558Z,12.70
2018-12-04T04:26:05.558Z,10.90
2018-12-04T04:27:05.579Z,11.40
2018-12-04T04:28:05.717Z,11.80
2018-12-04T04:29:05.655Z,11.40
2018-12-04T04:30:05.616Z,12.30
2018-12-04T04:31:05.634Z,11.10
2018-12-04T04:32:05.640Z,12.40
2018-12-04T04:33:05.648Z,12.70
2018-12-04T04:34:05.718Z,11.30
2018-12-04T04:35:05.666Z,11.60
2018-12-04T04:36:05.790Z,12.20
2018-12-04T04:37:05.730Z,12.10
2018-12-04T04:38:05.837Z,11.90
2018-12-04T04:39:05.779Z,11.10
2018-12-04T04:40:05.764Z,11.50
2018-12-04T04:41:05.842Z,11.70
2018-12-04T04:42:05.784Z,12.00
2018-12-04T04:43:05.776Z,12.60
2018-12-04T04:44:05.792Z,12.40
2018-12-04T04:45:05.806Z,14.20
2018-12-04T04:46:05.939Z,12.70
2018-12-04T04:47:05.872Z,13.40
2018-12-04T04:48:05.848Z,14.20
2018-12-04T04:49:05.869Z,15.80
2018-12-04T04:50:05.989Z,14.40
2018-12-04T04:51:06.027Z,15.70
2018-12-04T04:52:05.889Z,16.30
2018-12-04T04:53:05.912Z,16.00
2018-12-04T04:54:05.918Z,16.70
2018-12-04T04:55:05.945Z,16.90
2018-12-04T04:56:06.105Z,17.30
2018-12-04T04:57:05.985Z,16.50
2018-12-04T04:58:06.020Z,17.80
2018-12-04T04:59:05.980Z,18.30
2018-12-04T05:00:05.985Z,18.40
2018-12-04T05:01:06.095Z,17.40
2018-12-04T05:02:06.076Z,17.20
2018-12-04T05:03:06.044Z,18.40
2018-12-04T05:04:06.044Z,18.50
2018-12-04T05:05:06.072Z,18.40
2018-12-04T05:06:06.228Z,17.10
2018-12-04T05:07:06.105Z,17.30
2018-12-04T05:08:06.095Z,18.60
2018-12-04T05:09:06.107Z,17.30
2018-12-04T05:10:06.127Z,18.20
2018-12-04T05:11:06.297Z,18.50
2018-12-04T05:12:06.173Z,18.20
2018-12-04T05:13:06.166Z,17.10
2018-12-04T05:14:06.190Z,19.50
2018-12-04T05:15:06.206Z,19.00
2018-12-04T05:16:06.247Z,18.90
2018-12-04T05:17:06.230Z,19.90
2018-12-04T05:18:06.253Z,19.20
2018-12-04T05:19:06.235Z,20.30
2018-12-04T05:20:06.233Z,19.40
2018-12-04T05:21:06.367Z,19.00
2018-12-04T05:22:06.283Z,19.80
2018-12-04T05:23:06.301Z,19.80
2018-12-04T05:24:06.286Z,20.50
2018-12-04T05:25:06.303Z,20.00
2018-12-04T05:26:06.433Z,20.50
2018-12-04T05:27:06.356Z,19.60
2018-12-04T05:28:06.342Z,20.10
2018-12-04T05:29:06.384Z,20.80
2018-12-04T05:30:06.376Z,21.50
2018-12-04T05:31:06.496Z,20.80
2018-12-04T05:32:06.422Z,21.90
2018-12-04T05:33:06.400Z,21.10
2018-12-04T05:34:06.431Z,21.30
2018-12-04T05:35:06.489Z,21.20
2018-12-04T05:36:06.570Z,20.20
2018-12-04T05:37:06.463Z,22.20
2018-12-04T05:38:06.485Z,22.40
2018-12-04T05:39:06.483Z,22.20
2018-12-04T05:40:06.504Z,20.90
2018-12-04T05:41:06.651Z,21.50
2018-12-04T05:42:06.528Z,20.10
2018-12-04T05:43:06.548Z,21.20
2018-12-04T05:44:06.555Z,20.10
2018-12-04T05:45:06.572Z,20.80
2018-12-04T05:46:06.794Z,20.60
2018-12-04T05:47:06.595Z,20.40
2018-12-04T05:48:06.602Z,19.80
2018-12-04T05:49:06.616Z,20.60
2018-12-04T05:50:06.628Z,19.60
2018-12-04T05:51:06.857Z,20.40
2018-12-04T05:52:06.768Z,21.60
2018-12-04T05:53:06.703Z,20.70
2018-12-04T05:54:06.676Z,20.40
2018-12-04T05:55:06.729Z,20.80
2018-12-04T05:56:06.863Z,20.90
2018-12-04T05:57:06.777Z,19.80
2018-12-04T05:58:06.728Z,19.70
2018-12-04T05:59:06.742Z,19.10
2018-12-04T06:00:06.764Z,19.20
2018-12-04T06:01:06.870Z,20.70
2018-12-04T06:02:06.890Z,20.10
2018-12-04T06:03:06.780Z,20.20
2018-12-04T06:04:06.801Z,19.60
2018-12-04T06:05:06.799Z,19.60
2018-12-04T06:06:06.937Z,19.80
2018-12-04T06:07:06.846Z,19.70
2018-12-04T06:08:06.841Z,19.50
2018-12-04T06:09:06.981Z,19.50
2018-12-04T06:10:06.864Z,20.10
2018-12-04T06:11:06.937Z,21.10
2018-12-04T06:12:06.912Z,19.60
2018-12-04T06:13:06.915Z,20.10
2018-12-04T06:14:06.922Z,20.00
2018-12-04T06:15:06.920Z,21.50
2018-12-04T06:16:07.083Z,19.10
2018-12-04T06:17:07.083Z,22.30
2018-12-04T06:18:06.979Z,20.30
2018-12-04T06:19:07.005Z,22.20
2018-12-04T06:20:07.005Z,21.00
2018-12-04T06:21:07.101Z,21.10
2018-12-04T06:22:07.029Z,20.40
2018-12-04T06:23:07.032Z,18.70
2018-12-04T06:24:07.054Z,19.20
2018-12-04T06:25:07.064Z,20.20
2018-12-04T06:26:07.170Z,18.80
2018-12-04T06:27:07.204Z,18.50
2018-12-04T06:28:07.092Z,19.30
2018-12-04T06:29:07.108Z,19.60
2018-12-04T06:30:07.117Z,18.20
2018-12-04T06:31:07.349Z,17.90
2018-12-04T06:32:07.196Z,19.40
2018-12-04T06:33:07.160Z,18.10
2018-12-04T06:34:07.155Z,16.90
2018-12-04T06:35:07.300Z,17.40
2018-12-04T06:36:07.296Z,17.60
2018-12-04T06:37:07.327Z,18.50
2018-12-04T06:38:07.218Z,16.60
2018-12-04T06:39:07.222Z,17.60
2018-12-04T06:40:07.261Z,17.50
2018-12-04T06:41:07.355Z,17.60
2018-12-04T06:42:07.267Z,17.30
2018-12-04T06:43:07.284Z,17.50
2018-12-04T06:44:07.290Z,17.10
2018-12-04T06:45:07.298Z,17.20
2018-12-04T06:46:07.535Z,17.50
2018-12-04T06:47:07.316Z,19.00
2018-12-04T06:48:07.344Z,18.50
2018-12-04T06:49:07.357Z,18.10
2018-12-04T06:50:07.386Z,17.70
2018-12-04T06:51:07.523Z,17.60
2018-12-04T06:52:07.393Z,18.30
2018-12-04T06:53:07.522Z,18.50
2018-12-04T06:54:07.434Z,17.80
2018-12-04T06:55:07.432Z,18.80
2018-12-04T06:56:07.544Z,18.10
2018-12-04T06:57:07.446Z,18.20
2018-12-04T06:58:07.583Z,17.70
2018-12-04T06:59:07.470Z,18.40
2018-12-04T07:00:07.535Z,18.20
2018-12-04T07:01:07.771Z,17.30
2018-12-04T07:02:07.531Z,18.30
2018-12-04T07:03:07.535Z,17.90
2018-12-04T07:04:07.526Z,18.70
2018-12-04T07:05:07.563Z,18.80
2018-12-04T07:06:07.659Z,18.90
2018-12-04T07:07:07.577Z,19.20
2018-12-04T07:08:07.598Z,18.00
2018-12-04T07:09:07.613Z,19.00
2018-12-04T07:10:07.784Z,18.90
2018-12-04T07:11:07.692Z,20.90
2018-12-04T07:12:07.639Z,20.70
2018-12-04T07:13:07.660Z,18.70
2018-12-04T07:14:07.660Z,19.90
2018-12-04T07:15:07.682Z,20.30
2018-12-04T07:16:07.857Z,21.90
2018-12-04T07:17:07.743Z,21.80
2018-12-04T07:18:07.708Z,21.20
2018-12-04T07:19:07.724Z,20.30
2018-12-04T07:20:07.858Z,21.40
2018-12-04T07:21:07.968Z,21.20
2018-12-04T07:22:07.771Z,21.50
2018-12-04T07:23:07.892Z,21.80
2018-12-04T07:24:07.781Z,20.20
2018-12-04T07:25:07.794Z,21.70
2018-12-04T07:26:07.908Z,21.80
2018-12-04T07:27:07.826Z,23.90
2018-12-04T07:28:07.833Z,21.50
2018-12-04T07:29:07.856Z,21.90
2018-12-04T07:30:07.858Z,22.80
2018-12-04T07:31:07.922Z,23.30
2018-12-04T07:32:08.003Z,20.80
2018-12-04T07:33:07.947Z,21.20
2018-12-04T07:34:07.903Z,20.80
2018-12-04T07:35:07.928Z,21.40
2018-12-04T07:36:07.949Z,21.80
2018-12-04T07:37:07.932Z,23.10
2018-12-04T07:38:08.105Z,21.90
2018-12-04T07:39:07.963Z,21.60
2018-12-04T07:40:07.977Z,20.40
2018-12-04T07:41:08.113Z,20.80
2018-12-04T07:42:07.999Z,21.50
2018-12-04T07:43:09.413Z,21.60
2018-12-04T07:44:08.039Z,21.40
2018-12-04T07:45:08.030Z,21.10
2018-12-04T07:46:08.065Z,21.80
2018-12-04T07:47:08.059Z,20.50
2018-12-04T07:48:08.148Z,21.50
2018-12-04T07:49:08.100Z,21.30
2018-12-04T07:50:08.223Z,20.90
2018-12-04T07:51:08.125Z,20.90
2018-12-04T07:52:08.125Z,22.20
2018-12-04T07:53:08.231Z,22.50
2018-12-04T07:54:08.148Z,21.90
2018-12-04T07:55:08.161Z,22.30
2018-12-04T07:56:08.188Z,21.10
2018-12-04T07:57:08.199Z,21.80
2018-12-04T07:58:08.266Z,22.40
2018-12-04T07:59:08.332Z,22.20
2018-12-04T08:00:08.228Z,22.20
2018-12-04T08:01:08.232Z,21.40
2018-12-04T08:02:08.235Z,21.80
2018-12-04T08:03:08.318Z,21.40
2018-12-04T08:04:08.278Z,24.20
2018-12-04T08:05:08.283Z,24.10
2018-12-04T08:06:08.472Z,23.80
2018-12-04T08:07:08.306Z,25.00
2018-12-04T08:08:08.327Z,23.40
2018-12-04T08:09:08.345Z,23.40
2018-12-04T08:10:08.354Z,22.60
2018-12-04T08:11:08.453Z,23.50
2018-12-04T08:12:08.395Z,22.70
2018-12-04T08:13:08.428Z,22.30
2018-12-04T08:14:08.400Z,21.80
2018-12-04T08:15:08.412Z,22.30
2018-12-04T08:16:08.586Z,23.00
2018-12-04T08:17:08.423Z,24.00
2018-12-04T08:18:08.447Z,23.90
2018-12-04T08:19:08.578Z,23.20
2018-12-04T08:20:08.459Z,23.50
2018-12-04T08:21:08.533Z,22.60
2018-12-04T08:22:08.589Z,23.20
2018-12-04T08:23:08.508Z,23.30
2018-12-04T08:24:08.536Z,24.10
2018-12-04T08:25:08.540Z,23.50
2018-12-04T08:26:08.542Z,25.30
2018-12-04T08:27:08.708Z,25.30
2018-12-04T08:28:08.591Z,25.50
2018-12-04T08:29:08.573Z,27.80
2018-12-04T08:30:08.595Z,26.40
2018-12-04T08:31:08.648Z,25.10
2018-12-04T08:32:09.918Z,23.90
2018-12-04T08:33:08.650Z,23.70
2018-12-04T08:34:08.662Z,24.90
2018-12-04T08:35:08.670Z,24.60
2018-12-04T08:36:08.668Z,24.00
2018-12-04T08:37:08.788Z,24.30
2018-12-04T08:38:08.698Z,23.50
2018-12-04T08:39:13.083Z,24.00
2018-12-04T08:40:08.721Z,25.00
2018-12-04T08:41:08.745Z,23.60
2018-12-04T08:42:08.799Z,24.00
2018-12-04T08:43:08.813Z,22.60
2018-12-04T08:44:08.892Z,22.60
2018-12-04T08:45:08.779Z,21.40
2018-12-04T08:46:08.784Z,21.00
2018-12-04T08:47:08.804Z,21.30
2018-12-04T08:48:08.964Z,22.30
2018-12-04T08:49:08.832Z,21.00
2018-12-04T08:50:08.853Z,19.80
2018-12-04T08:51:08.853Z,21.40
2018-12-04T08:52:08.870Z,21.10
2018-12-04T08:53:08.973Z,20.20
2018-12-04T08:54:08.912Z,20.80
2018-12-04T08:55:08.908Z,21.10
2018-12-04T08:56:08.919Z,19.80
2018-12-04T08:57:08.932Z,20.50
2018-12-04T08:58:09.053Z,20.50
2018-12-04T08:59:08.965Z,18.90
2018-12-04T09:00:08.984Z,20.20
2018-12-04T09:01:09.080Z,20.50
2018-12-04T09:02:09.015Z,18.10
2018-12-04T09:03:09.213Z,19.50
2018-12-04T09:04:09.031Z,20.40
2018-12-04T09:05:09.059Z,18.00
2018-12-04T09:06:09.055Z,18.80
2018-12-04T09:07:09.079Z,20.90
2018-12-04T09:08:09.578Z,21.30
2018-12-04T09:09:09.089Z,20.40
2018-12-04T09:10:09.104Z,20.30
2018-12-04T09:11:09.236Z,21.50
2018-12-04T09:12:09.253Z,21.50
2018-12-04T09:13:09.175Z,21.00
2018-12-04T09:14:09.152Z,20.40
2018-12-04T09:15:09.178Z,22.70
2018-12-04T09:16:09.290Z,23.00
2018-12-04T09:17:09.225Z,22.70
2018-12-04T09:18:09.282Z,20.60
2018-12-04T09:19:09.256Z,19.60
2018-12-04T09:20:09.261Z,20.10
2018-12-04T09:21:09.456Z,19.00
2018-12-04T09:22:09.299Z,19.20
2018-12-04T09:23:09.365Z,22.20
2018-12-04T09:24:09.311Z,21.90
2018-12-04T09:25:09.343Z,22.30
2018-12-04T09:26:09.417Z,25.80
2018-12-04T09:27:09.341Z,26.30
2018-12-04T09:28:09.390Z,29.50
2018-12-04T09:29:09.406Z,32.20
2018-12-04T09:30:09.397Z,31.90
2018-12-04T09:31:09.452Z,31.10
2018-12-04T09:32:09.431Z,32.00
2018-12-04T09:33:09.440Z,31.30
2018-12-04T09:34:09.570Z,32.30
2018-12-04T09:35:09.475Z,32.10
2018-12-04T09:36:09.574Z,32.90
2018-12-04T09:37:09.496Z,32.90
2018-12-04T09:38:09.507Z,32.40
2018-12-04T09:39:09.524Z,31.40
2018-12-04T09:40:09.552Z,35.50
2018-12-04T09:41:09.769Z,35.10
2018-12-04T09:42:09.565Z,35.70
2018-12-04T09:43:09.572Z,37.40
2018-12-04T09:44:09.598Z,37.10
2018-12-04T09:45:09.607Z,37.80
2018-12-04T09:46:09.616Z,38.40
2018-12-04T09:47:09.786Z,40.20
2018-12-04T09:48:09.663Z,40.30
2018-12-04T09:49:09.683Z,40.70
2018-12-04T09:50:09.691Z,39.20
2018-12-04T09:51:09.701Z,40.00
2018-12-04T09:52:09.859Z,37.50
2018-12-04T09:53:09.848Z,39.80
2018-12-04T09:54:09.739Z,38.30
2018-12-04T09:55:09.755Z,36.90
2018-12-04T09:56:09.772Z,36.40
2018-12-04T09:57:09.938Z,36.20
2018-12-04T09:58:09.925Z,37.40
2018-12-04T09:59:09.887Z,36.10
2018-12-04T10:00:09.858Z,35.80
2018-12-04T10:01:09.874Z,34.40
2018-12-04T10:02:09.977Z,33.90
2018-12-04T10:03:09.924Z,34.90
2018-12-04T10:04:09.916Z,33.00
2018-12-04T10:05:09.909Z,31.90
2018-12-04T10:06:09.930Z,31.80
2018-12-04T10:07:10.063Z,30.70
2018-12-04T10:08:09.971Z,31.00
2018-12-04T10:09:10.012Z,30.70
2018-12-04T10:10:10.118Z,29.70
2018-12-04T10:11:10.010Z,28.80
2018-12-04T10:12:10.119Z,28.40
2018-12-04T10:13:10.093Z,25.40
2018-12-04T10:14:10.066Z,25.40
2018-12-04T10:15:10.126Z,23.40
2018-12-04T10:16:10.096Z,22.30
2018-12-04T10:17:10.218Z,21.00
2018-12-04T10:18:10.138Z,21.40
2018-12-04T10:19:10.143Z,21.90
2018-12-04T10:20:10.162Z,20.40
2018-12-04T10:21:10.301Z,22.00
2018-12-04T10:22:10.339Z,21.00
2018-12-04T10:23:10.212Z,20.00
2018-12-04T10:24:10.258Z,20.70
2018-12-04T10:25:10.377Z,21.10
2018-12-04T10:26:10.396Z,19.40
2018-12-04T10:27:10.483Z,20.20
2018-12-04T10:28:10.303Z,21.40
2018-12-04T10:29:10.345Z,19.30
2018-12-04T10:30:10.485Z,20.60
2018-12-04T10:31:10.375Z,21.00
2018-12-04T10:32:10.494Z,19.20
2018-12-04T10:33:10.408Z,18.50
2018-12-04T10:34:10.436Z,18.00
2018-12-04T10:35:10.470Z,19.90
2018-12-04T10:36:10.486Z,16.40
2018-12-04T10:37:10.655Z,17.50
2018-12-04T10:38:10.512Z,18.10
2018-12-04T10:39:10.522Z,17.20
2018-12-04T10:40:10.557Z,16.90
2018-12-04T10:41:10.578Z,16.30
2018-12-04T10:42:10.642Z,17.60
2018-12-04T10:43:10.629Z,16.60
2018-12-04T10:44:10.634Z,15.60
2018-12-04T10:45:10.664Z,16.50
2018-12-04T10:46:10.828Z,18.30
2018-12-04T10:47:10.700Z,16.40
2018-12-04T10:48:10.722Z,16.90
2018-12-04T10:49:10.773Z,16.90
2018-12-04T10:50:10.888Z,15.10
2018-12-04T10:51:10.836Z,14.90
2018-12-04T10:52:10.827Z,16.20
2018-12-04T10:53:10.864Z,15.40
2018-12-04T10:54:10.870Z,15.10
2018-12-04T10:55:10.890Z,15.40
2018-12-04T10:56:11.002Z,16.30
2018-12-04T10:57:10.920Z,15.60
2018-12-04T10:58:10.956Z,16.60
2018-12-04T10:59:10.987Z,15.00
2018-12-04T11:00:11.006Z,16.20
2018-12-04T11:01:11.134Z,15.60
2018-12-04T11:02:11.056Z,14.70
2018-12-04T11:03:11.080Z,15.20
2018-12-04T11:04:11.111Z,15.30
2018-12-04T11:05:11.117Z,16.40
2018-12-04T11:06:11.260Z,16.30
2018-12-04T11:07:11.176Z,15.60
2018-12-04T11:08:11.198Z,14.40
2018-12-04T11:09:11.228Z,13.80
2018-12-04T11:10:11.263Z,18.30
2018-12-04T11:11:11.575Z,17.70
2018-12-04T11:12:12.337Z,19.00
2018-12-04T11:13:11.359Z,17.60
2018-12-04T11:14:11.349Z,16.80
2018-12-04T11:15:11.396Z,16.60
2018-12-04T11:16:11.393Z,15.30
2018-12-04T11:17:11.635Z,16.70
2018-12-04T11:18:11.432Z,15.00
2018-12-04T11:19:11.471Z,15.90
2018-12-04T11:20:11.488Z,16.30
2018-12-04T11:21:11.517Z,15.40
2018-12-04T11:22:11.714Z,14.10
2018-12-04T11:23:11.556Z,13.40
2018-12-04T11:24:11.584Z,14.10
2018-12-04T11:25:11.623Z,15.10
2018-12-04T11:26:11.694Z,14.10
2018-12-04T11:27:11.818Z,14.70
2018-12-04T11:28:11.692Z,15.10
2018-12-04T11:29:11.841Z,14.90
2018-12-04T11:30:11.746Z,13.40
2018-12-04T11:31:11.780Z,14.70
2018-12-04T11:32:11.898Z,12.80
2018-12-04T11:33:11.825Z,13.40
2018-12-04T11:34:11.852Z,12.80
2018-12-04T11:35:11.887Z,12.10
2018-12-04T11:36:12.017Z,13.20
2018-12-04T11:37:12.024Z,14.40
2018-12-04T11:38:11.958Z,14.10
2018-12-04T11:39:11.976Z,13.50
2018-12-04T11:40:11.995Z,14.60
2018-12-04T11:41:12.061Z,13.10
2018-12-04T11:42:12.202Z,12.30
2018-12-04T11:43:12.073Z,10.90
2018-12-04T11:44:12.105Z,11.20
2018-12-04T11:45:12.257Z,11.50
2018-12-04T11:46:12.175Z,13.90
2018-12-04T11:47:12.236Z,12.80
2018-12-04T11:48:12.220Z,11.70
2018-12-04T11:49:12.239Z,12.70
2018-12-04T11:50:12.260Z,12.80
2018-12-04T11:51:12.306Z,12.40
2018-12-04T11:52:12.442Z,13.20
2018-12-04T11:53:12.377Z,12.50
2018-12-04T11:54:12.374Z,13.00
2018-12-04T11:55:12.401Z,12.80
2018-12-04T11:56:12.449Z,12.70
2018-12-04T11:58:12.494Z,12.30
2018-12-04T11:59:12.531Z,13.60
2018-12-04T12:00:12.538Z,12.20
2018-12-04T12:01:12.648Z,10.80
2018-12-04T12:03:12.630Z,9.30
2018-12-04T12:04:12.730Z,10.40
2018-12-04T12:05:12.703Z,10.50
2018-12-04T12:06:12.720Z,10.40
2018-12-04T12:07:12.785Z,10.60
2018-12-04T12:08:12.784Z,11.60
2018-12-04T12:09:12.791Z,11.40
2018-12-04T12:10:12.827Z,10.80
2018-12-04T12:11:12.859Z,11.80
2018-12-04T12:12:12.924Z,9.30
2018-12-04T12:13:12.908Z,10.10
2018-12-04T12:14:12.981Z,9.90
2018-12-04T12:15:18.005Z,9.50
2018-12-04T12:16:13.211Z,10.20
2018-12-04T12:17:13.024Z,9.80
2018-12-04T12:18:13.100Z,8.90
2018-12-04T12:19:13.082Z,9.10
2018-12-04T12:20:13.112Z,9.60
2018-12-04T12:21:13.239Z,9.40
2018-12-04T12:22:13.157Z,9.70
2018-12-04T12:23:13.245Z,9.40
2018-12-04T12:24:13.336Z,9.50
2018-12-04T12:25:13.258Z,8.00
2018-12-04T12:26:13.424Z,7.40
2018-12-04T12:27:13.417Z,6.90
2018-12-04T12:28:13.322Z,7.30
2018-12-04T12:29:13.354Z,7.90
2018-12-04T12:30:13.374Z,7.50
2018-12-04T12:31:13.506Z,7.70
2018-12-04T12:32:13.433Z,7.90
2018-12-04T12:33:13.476Z,7.80
2018-12-04T12:34:13.619Z,7.70
2018-12-04T12:35:13.526Z,7.90
2018-12-04T12:36:13.609Z,8.30
2018-12-04T12:37:13.628Z,8.30
2018-12-04T12:38:13.622Z,8.20
2018-12-04T12:39:13.646Z,7.30
2018-12-04T12:40:13.665Z,8.40
2018-12-04T12:41:13.705Z,8.30
2018-12-04T12:42:13.909Z,8.80
2018-12-04T12:43:13.754Z,8.30
2018-12-04T12:44:13.800Z,8.30
2018-12-04T12:45:13.816Z,8.30
2018-12-04T12:46:13.841Z,8.80
2018-12-04T12:47:14.061Z,8.00
2018-12-04T12:48:13.891Z,8.90
2018-12-04T12:49:13.937Z,8.70
2018-12-04T12:50:13.988Z,8.00
2018-12-04T12:51:13.969Z,7.80
2018-12-04T12:52:14.127Z,7.40
2018-12-04T12:53:14.042Z,7.70
2018-12-04T12:54:14.075Z,7.50
2018-12-04T12:55:14.091Z,6.80
2018-12-04T12:56:14.134Z,7.20
2018-12-04T12:57:14.196Z,6.30
2018-12-04T12:58:14.188Z,7.90
2018-12-04T12:59:14.214Z,7.80
2018-12-04T13:00:14.246Z,8.20
2018-12-04T13:01:14.267Z,7.30